^^

New Milford Station Historical Data

 
Daily Summary for November 17, 2018 Units:  English    Metric   Both
Daily Weekly Monthly Yearly Custom
  Current: High: Low: Average:
Temperature: 36.3 °F 44.7 °F 36.3 °F 39.3 °F
Dew Point: 34.2 °F 35.6 °F 32.6 °F 34.2 °F
Humidity: 92% 93% 63% 82%
Wind Speed: 0.0mph 7.0mph 0.0mph 1.3mph
Wind Gust: 0.0mph 11.0mph - -
WindCalm - - SE
Pressure: 30.19 in 30.19 in 29.85 in -
Precipitation: 0.00 in      
Historical Graphs
 
 
Tabular Data for November 17, 2018
Time Temperature Dew Point Pressure Wind Wind Speed Wind Gust Humidity Rainfall Rate (Hourly) solar
00:00 38.0 °F 33.6 °F 29.85 in South 6.0 mph 7.0 mph 84% 0.00 in WeatherDisplay:10.37 W/m2
00:10 37.8 °F 33.4 °F 29.86 in SSE 3.0 mph 6.0 mph 84% 0.00 in WeatherDisplay:10.37 W/m2
00:15 38.1 °F 34.0 °F 29.86 in SSE 2.0 mph 6.0 mph 85% 0.00 in WeatherDisplay:10.37 W/m2
00:20 37.4 °F 33.0 °F 29.86 in SE 3.0 mph 6.0 mph 84% 0.00 in WeatherDisplay:10.37 W/m2
00:25 38.0 °F 33.6 °F 29.86 in East 1.0 mph 3.0 mph 84% 0.00 in WeatherDisplay:10.37 W/m2
00:35 37.7 °F 34.2 °F 29.86 in SSW 1.0 mph 10.0 mph 87% 0.00 in WeatherDisplay:10.37 W/m2
00:45 37.5 °F 33.4 °F 29.86 in South 3.0 mph 6.0 mph 85% 0.00 in WeatherDisplay:10.37 W/m2
00:55 37.6 °F 33.8 °F 29.87 in SSW 2.0 mph 8.0 mph 86% 0.00 in WeatherDisplay:10.37 W/m2
01:00 37.4 °F 33.6 °F 29.87 in SSW 5.0 mph 8.0 mph 86% 0.00 in WeatherDisplay:10.37 W/m2
01:05 37.4 °F 33.6 °F 29.87 in SSW 6.0 mph 11.0 mph 86% 0.00 in WeatherDisplay:10.37 W/m2
01:10 37.4 °F 33.6 °F 29.87 in South 3.0 mph 10.0 mph 86% 0.00 in WeatherDisplay:10.37 W/m2
01:20 37.6 °F 33.8 °F 29.87 in SSE 1.0 mph 5.0 mph 86% 0.00 in WeatherDisplay:10.37 W/m2
01:25 37.4 °F 33.9 °F 29.87 in SE 2.0 mph 3.0 mph 87% 0.00 in WeatherDisplay:10.37 W/m2
01:30 37.1 °F 33.6 °F 29.88 in SE 1.0 mph 4.0 mph 87% 0.00 in WeatherDisplay:10.37 W/m2
01:35 37.0 °F 33.5 °F 29.88 in SE 2.0 mph 6.0 mph 87% 0.00 in WeatherDisplay:10.37 W/m2
01:40 37.3 °F 33.8 °F 29.88 in SSE 1.0 mph 6.0 mph 87% 0.00 in WeatherDisplay:10.37 W/m2
01:45 37.0 °F 33.8 °F 29.88 in SE 2.0 mph 6.0 mph 88% 0.00 in WeatherDisplay:10.37 W/m2
01:50 37.0 °F 33.8 °F 29.89 in Calm   5.0 mph 88% 0.00 in WeatherDisplay:10.37 W/m2
01:55 36.8 °F 34.2 °F 29.89 in SE 2.0 mph 6.0 mph 90% 0.00 in WeatherDisplay:10.37 W/m2
02:00 36.7 °F 34.1 °F 29.89 in SSE 2.0 mph 5.0 mph 90% 0.00 in WeatherDisplay:10.37 W/m2
02:05 37.1 °F 33.9 °F 29.90 in SE 2.0 mph 7.0 mph 88% 0.00 in WeatherDisplay:10.37 W/m2
02:10 37.2 °F 33.9 °F 29.91 in SE 2.0 mph 5.0 mph 88% 0.00 in WeatherDisplay:10.37 W/m2
02:15 37.3 °F 33.8 °F 29.91 in ESE 2.0 mph 5.0 mph 87% 0.00 in WeatherDisplay:10.37 W/m2
02:30 37.3 °F 34.1 °F 29.91 in ESE 1.0 mph 3.0 mph 88% 0.00 in WeatherDisplay:10.37 W/m2
02:35 37.1 °F 33.5 °F 29.91 in SE 5.0 mph 9.0 mph 87% 0.00 in WeatherDisplay:10.37 W/m2
02:40 37.4 °F 33.9 °F 29.91 in SE 2.0 mph 5.0 mph 87% 0.00 in WeatherDisplay:10.37 W/m2
02:45 37.2 °F 34.0 °F 29.92 in SE 1.0 mph 3.0 mph 88% 0.00 in WeatherDisplay:10.37 W/m2
02:50 37.0 °F 34.1 °F 29.92 in Calm   4.0 mph 89% 0.00 in WeatherDisplay:10.37 W/m2
02:55 36.7 °F 34.1 °F 29.92 in Calm     90% 0.00 in WeatherDisplay:10.37 W/m2
03:00 36.7 °F 34.0 °F 29.92 in ESE 2.0 mph 5.0 mph 90% 0.00 in WeatherDisplay:10.37 W/m2
03:10 37.1 °F 33.9 °F 29.92 in East 2.0 mph 7.0 mph 88% 0.00 in WeatherDisplay:10.37 W/m2
03:15 37.2 °F 33.7 °F 29.93 in ESE 5.0 mph 6.0 mph 87% 0.00 in WeatherDisplay:10.37 W/m2
03:20 37.8 °F 34.0 °F 29.93 in ESE 2.0 mph 6.0 mph 86% 0.00 in WeatherDisplay:10.37 W/m2
03:30 37.7 °F 33.9 °F 29.92 in ESE 3.0 mph 5.0 mph 86% 0.00 in WeatherDisplay:10.37 W/m2
03:35 37.4 °F 34.2 °F 29.92 in ESE 1.0 mph 3.0 mph 88% 0.00 in WeatherDisplay:10.37 W/m2
03:40 37.2 °F 34.0 °F 29.92 in ESE 2.0 mph 5.0 mph 88% 0.00 in WeatherDisplay:10.37 W/m2
03:50 37.4 °F 33.9 °F 29.93 in ESE 2.0 mph 8.0 mph 87% 0.00 in WeatherDisplay:10.37 W/m2
03:55 37.4 °F 34.2 °F 29.93 in ESE 2.0 mph 4.0 mph 88% 0.00 in WeatherDisplay:10.37 W/m2
04:00 37.2 °F 33.9 °F 29.94 in SE 3.0 mph 6.0 mph 88% 0.00 in WeatherDisplay:10.37 W/m2
04:05 37.3 °F 34.1 °F 29.94 in ESE 1.0 mph 6.0 mph 88% 0.00 in WeatherDisplay:10.37 W/m2
04:10 37.1 °F 33.9 °F 29.94 in NE 6.0 mph 10.0 mph 88% 0.00 in WeatherDisplay:10.37 W/m2
04:15 37.3 °F 34.1 °F 29.95 in ENE 2.0 mph 6.0 mph 88% 0.00 in WeatherDisplay:10.37 W/m2
04:20 37.5 °F 34.2 °F 29.95 in ESE 2.0 mph 5.0 mph 88% 0.00 in WeatherDisplay:10.37 W/m2
04:25 37.5 °F 34.0 °F 29.95 in ESE 3.0 mph 7.0 mph 87% 0.00 in WeatherDisplay:10.37 W/m2
04:30 37.6 °F 34.1 °F 29.95 in East 2.0 mph 5.0 mph 87% 0.00 in WeatherDisplay:10.37 W/m2
04:35 37.6 °F 34.1 °F 29.96 in East 3.0 mph 5.0 mph 87% 0.00 in WeatherDisplay:10.37 W/m2
04:40 37.3 °F 34.0 °F 29.96 in ESE 2.0 mph 7.0 mph 88% 0.00 in WeatherDisplay:10.37 W/m2
04:45 37.4 °F 34.1 °F 29.96 in SE 2.0 mph 8.0 mph 88% 0.00 in WeatherDisplay:10.37 W/m2
04:50 37.2 °F 34.3 °F 29.97 in SE 1.0 mph 6.0 mph 89% 0.00 in WeatherDisplay:10.37 W/m2
04:55 37.6 °F 34.1 °F 29.97 in ESE 3.0 mph 7.0 mph 87% 0.00 in WeatherDisplay:10.37 W/m2
05:00 37.7 °F 34.5 °F 29.97 in ESE 1.0 mph 5.0 mph 88% 0.00 in WeatherDisplay:10.37 W/m2
05:05 37.5 °F 34.3 °F 29.97 in SE 2.0 mph 4.0 mph 88% 0.00 in WeatherDisplay:10.37 W/m2
05:10 37.4 °F 34.5 °F 29.98 in Calm   3.0 mph 89% 0.00 in WeatherDisplay:10.37 W/m2
05:15 37.3 °F 34.3 °F 29.98 in SE 2.0 mph 4.0 mph 89% 0.00 in WeatherDisplay:10.37 W/m2
05:20 37.4 °F 34.5 °F 29.98 in SE 1.0 mph 5.0 mph 89% 0.00 in WeatherDisplay:10.37 W/m2
05:25 37.5 °F 34.5 °F 29.99 in Calm   4.0 mph 89% 0.00 in WeatherDisplay:10.37 W/m2
05:30 37.2 °F 34.6 °F 29.99 in SSE 2.0 mph 4.0 mph 90% 0.00 in WeatherDisplay:10.37 W/m2
05:35 37.0 °F 34.3 °F 30.00 in South 1.0 mph 2.0 mph 90% 0.00 in WeatherDisplay:10.37 W/m2
05:40 36.8 °F 34.4 °F 30.00 in South 1.0 mph 2.0 mph 91% 0.00 in WeatherDisplay:10.37 W/m2
05:45 36.6 °F 34.5 °F 30.00 in SSE 1.0 mph 3.0 mph 92% 0.00 in WeatherDisplay:10.37 W/m2
05:50 36.6 °F 34.5 °F 30.00 in Calm   5.0 mph 92% 0.00 in WeatherDisplay:10.37 W/m2
05:55 36.9 °F 34.5 °F 30.01 in ESE 1.0 mph 3.0 mph 91% 0.00 in WeatherDisplay:10.37 W/m2
06:00 37.0 °F 34.3 °F 30.01 in Calm   3.0 mph 90% 0.00 in WeatherDisplay:10.37 W/m2
06:05 37.0 °F 34.4 °F 30.01 in Calm   4.0 mph 90% 0.00 in WeatherDisplay:10.37 W/m2
06:10 37.1 °F 34.7 °F 30.01 in East 1.0 mph 4.0 mph 91% 0.00 in WeatherDisplay:10.37 W/m2
06:15 36.9 °F 34.8 °F 30.02 in Calm   3.0 mph 92% 0.00 in WeatherDisplay:10.37 W/m2
06:20 36.5 °F 34.2 °F 30.02 in NE 3.0 mph 6.0 mph 91% 0.00 in WeatherDisplay:10.37 W/m2
06:25 37.2 °F 34.6 °F 30.03 in Calm   6.0 mph 90% 0.00 in WeatherDisplay:10.37 W/m2
06:30 37.1 °F 34.5 °F 30.03 in SE 2.0 mph 5.0 mph 90% 0.00 in WeatherDisplay:10.37 W/m2
06:35 36.9 °F 34.5 °F 30.03 in Calm   5.0 mph 91% 0.00 in WeatherDisplay:10.37 W/m2
06:40 37.0 °F 34.6 °F 30.03 in East 1.0 mph 6.0 mph 91% 0.00 in WeatherDisplay:10.37 W/m2
06:45 37.1 °F 34.7 °F 30.04 in Calm   3.0 mph 91% 0.00 in WeatherDisplay:10.37 W/m2
06:50 37.0 °F 34.6 °F 30.04 in Calm     91% 0.00 in WeatherDisplay:10.37 W/m2
06:55 36.5 °F 34.4 °F 30.04 in Calm     92% 0.00 in WeatherDisplay:10.37 W/m2
07:00 36.6 °F 34.5 °F 30.04 in Calm   4.0 mph 92% 0.00 in WeatherDisplay:10.37 W/m2
07:10 36.6 °F 34.5 °F 30.04 in Calm   2.0 mph 92% 0.00 in WeatherDisplay:10.37 W/m2
07:15 36.5 °F 34.4 °F 30.04 in Calm     92% 0.00 in WeatherDisplay:10.37 W/m2
07:20 36.6 °F 34.8 °F 30.04 in East 1.0 mph 3.0 mph 93% 0.00 in WeatherDisplay:10.37 W/m2
07:25 37.0 °F 34.9 °F 30.04 in SE 1.0 mph 3.0 mph 92% 0.00 in WeatherDisplay:10.37 W/m2
07:30 36.9 °F 34.8 °F 30.05 in Calm   3.0 mph 92% 0.00 in WeatherDisplay:10.37 W/m2
07:35 37.2 °F 35.0 °F 30.05 in Calm   5.0 mph 92% 0.00 in WeatherDisplay:10.37 W/m2
07:40 37.1 °F 35.0 °F 30.05 in Calm     92% 0.00 in WeatherDisplay:10.37 W/m2
07:45 37.0 °F 34.9 °F 30.05 in ESE 1.0 mph 2.0 mph 92% 0.00 in WeatherDisplay:10.37 W/m2
07:50 37.3 °F 35.2 °F 30.06 in Calm   1.0 mph 92% 0.00 in WeatherDisplay:10.37 W/m2
07:55 37.7 °F 35.0 °F 30.06 in Calm   3.0 mph 90% 0.00 in WeatherDisplay:10.37 W/m2
08:00 38.0 °F 35.3 °F 30.06 in Calm   4.0 mph 90% 0.00 in WeatherDisplay:10.37 W/m2
08:05 38.2 °F 34.9 °F 30.06 in SE 2.0 mph 3.0 mph 88% 0.00 in WeatherDisplay:10.37 W/m2
08:10 38.4 °F 35.4 °F 30.06 in Calm   2.0 mph 89% 0.00 in WeatherDisplay:10.37 W/m2
08:15 38.4 °F 35.4 °F 30.07 in Calm   1.0 mph 89% 0.00 in WeatherDisplay:10.37 W/m2
08:20 38.5 °F 34.9 °F 30.07 in Calm   1.0 mph 87% 0.00 in WeatherDisplay:10.37 W/m2
08:25 38.8 °F 35.6 °F 30.07 in East 1.0 mph 8.0 mph 88% 0.00 in WeatherDisplay:10.37 W/m2
08:30 38.8 °F 35.3 °F 30.07 in Calm   8.0 mph 87% 0.00 in WeatherDisplay:10.37 W/m2
08:35 38.9 °F 34.8 °F 30.06 in West 1.0 mph 5.0 mph 85% 0.00 in WeatherDisplay:10.37 W/m2
08:40 38.8 °F 35.0 °F 30.07 in SE 2.0 mph 2.0 mph 86% 0.00 in WeatherDisplay:10.37 W/m2
08:45 39.1 °F 34.7 °F 30.07 in SSE 3.0 mph 5.0 mph 84% 0.00 in WeatherDisplay:10.37 W/m2
08:50 39.7 °F 35.3 °F 30.06 in Calm   4.0 mph 84% 0.00 in WeatherDisplay:10.37 W/m2
08:55 39.9 °F 34.9 °F 30.07 in SSW 1.0 mph 4.0 mph 82% 0.00 in WeatherDisplay:10.37 W/m2
09:00 40.2 °F 34.5 °F 30.07 in SSW 3.0 mph 7.0 mph 80% 0.00 in WeatherDisplay:10.37 W/m2
09:05 40.4 °F 35.1 °F 30.07 in Calm   5.0 mph 81% 0.00 in WeatherDisplay:10.37 W/m2
09:10 40.8 °F 34.4 °F 30.07 in SSE 3.0 mph 7.0 mph 78% 0.00 in WeatherDisplay:10.37 W/m2
09:15 41.3 °F 34.9 °F 30.07 in SSE 3.0 mph 5.0 mph 78% 0.00 in WeatherDisplay:10.37 W/m2
09:20 42.0 °F 34.9 °F 30.07 in SE 2.0 mph 6.0 mph 76% 0.00 in WeatherDisplay:10.37 W/m2
09:25 42.1 °F 35.1 °F 30.07 in SE 2.0 mph 6.0 mph 76% 0.00 in WeatherDisplay:10.37 W/m2
09:30 42.2 °F 35.2 °F 30.07 in SE 1.0 mph 5.0 mph 76% 0.00 in WeatherDisplay:10.37 W/m2
09:35 42.1 °F 35.4 °F 30.07 in Calm   2.0 mph 77% 0.00 in WeatherDisplay:10.37 W/m2
09:40 41.5 °F 34.8 °F 30.07 in East 3.0 mph 4.0 mph 77% 0.00 in WeatherDisplay:10.37 W/m2
09:45 42.0 °F 34.7 °F 30.07 in ESE 1.0 mph 5.0 mph 75% 0.00 in WeatherDisplay:10.37 W/m2
09:50 42.4 °F 35.0 °F 30.07 in ESE 1.0 mph 4.0 mph 75% 0.00 in WeatherDisplay:10.37 W/m2
09:55 42.4 °F 34.3 °F 30.07 in ENE 5.0 mph 8.0 mph 73% 0.00 in WeatherDisplay:10.37 W/m2
10:00 42.6 °F 34.5 °F 30.07 in ENE 2.0 mph 5.0 mph 73% 0.00 in WeatherDisplay:10.37 W/m2
10:05 42.9 °F 34.2 °F 30.07 in ENE 1.0 mph 5.0 mph 71% 0.00 in WeatherDisplay:10.37 W/m2
10:10 43.6 °F 34.5 °F 30.07 in East 2.0 mph 10.0 mph 70% 0.00 in WeatherDisplay:10.37 W/m2
10:15 43.4 °F 34.3 °F 30.08 in East 2.0 mph 8.0 mph 70% 0.00 in WeatherDisplay:10.37 W/m2
10:20 43.4 °F 34.6 °F 30.08 in East 2.0 mph 6.0 mph 71% 0.00 in WeatherDisplay:10.37 W/m2
10:25 43.2 °F 34.8 °F 30.08 in ESE 2.0 mph 6.0 mph 72% 0.00 in WeatherDisplay:10.37 W/m2
10:30 43.0 °F 34.2 °F 30.08 in ESE 3.0 mph 7.0 mph 71% 0.00 in WeatherDisplay:10.37 W/m2
10:35 42.7 °F 34.6 °F 30.08 in ESE 2.0 mph 5.0 mph 73% 0.00 in WeatherDisplay:10.37 W/m2
10:40 43.0 °F 33.5 °F 30.08 in East 2.0 mph 7.0 mph 69% 0.00 in WeatherDisplay:10.37 W/m2
10:45 43.3 °F 33.4 °F 30.08 in ESE 5.0 mph 10.0 mph 68% 0.00 in WeatherDisplay:10.37 W/m2
10:50 43.3 °F 34.2 °F 30.08 in SSE 1.0 mph 5.0 mph 70% 0.00 in WeatherDisplay:10.37 W/m2
10:55 42.9 °F 33.8 °F 30.09 in ESE 7.0 mph 10.0 mph 70% 0.00 in WeatherDisplay:10.37 W/m2
11:00 43.2 °F 34.5 °F 30.09 in East 2.0 mph 10.0 mph 71% 0.00 in WeatherDisplay:10.37 W/m2
11:05 43.0 °F 34.3 °F 30.08 in ESE 1.0 mph 3.0 mph 71% 0.00 in WeatherDisplay:10.37 W/m2
11:10 43.1 °F 34.7 °F 30.08 in ESE 1.0 mph 2.0 mph 72% 0.00 in WeatherDisplay:10.37 W/m2
11:15 43.3 °F 34.5 °F 30.09 in NE 2.0 mph 6.0 mph 71% 0.00 in WeatherDisplay:10.37 W/m2
11:20 43.3 °F 34.2 °F 30.08 in NE 1.0 mph 5.0 mph 70% 0.00 in WeatherDisplay:10.37 W/m2
11:25 43.3 °F 33.8 °F 30.08 in NE 2.0 mph 5.0 mph 69% 0.00 in WeatherDisplay:10.37 W/m2
11:30 43.9 °F 34.7 °F 30.09 in NNE 1.0 mph 7.0 mph 70% 0.00 in WeatherDisplay:10.37 W/m2
11:35 43.6 °F 33.7 °F 30.09 in ESE 3.0 mph 4.0 mph 68% 0.00 in WeatherDisplay:10.37 W/m2
11:40 43.7 °F 33.8 °F 30.09 in ESE 3.0 mph 6.0 mph 68% 0.00 in WeatherDisplay:10.37 W/m2
11:45 43.8 °F 34.3 °F 30.08 in ESE 2.0 mph 3.0 mph 69% 0.00 in WeatherDisplay:10.37 W/m2
11:50 43.8 °F 33.1 °F 30.08 in SE 2.0 mph 5.0 mph 66% 0.00 in WeatherDisplay:10.37 W/m2
11:55 44.2 °F 33.9 °F 30.08 in SE 2.0 mph 4.0 mph 67% 0.00 in WeatherDisplay:10.37 W/m2
12:05 44.7 °F 33.6 °F 30.08 in ESE 3.0 mph 6.0 mph 65% 0.00 in WeatherDisplay:10.37 W/m2
12:10 44.6 °F 33.9 °F 30.08 in ESE 2.0 mph 7.0 mph 66% 0.00 in WeatherDisplay:10.37 W/m2
12:15 43.5 °F 32.9 °F 30.08 in SE 5.0 mph 7.0 mph 66% 0.00 in WeatherDisplay:10.37 W/m2
12:20 44.4 °F 32.9 °F 30.08 in SE 3.0 mph 6.0 mph 64% 0.00 in WeatherDisplay:10.37 W/m2
12:25 44.3 °F 34.1 °F 30.08 in ESE 2.0 mph 8.0 mph 67% 0.00 in WeatherDisplay:10.37 W/m2
12:30 44.4 °F 32.6 °F 30.08 in ESE 5.0 mph 8.0 mph 63% 0.00 in WeatherDisplay:10.37 W/m2
12:35 44.4 °F 34.1 °F 30.07 in ESE 1.0 mph 9.0 mph 67% 0.00 in WeatherDisplay:10.37 W/m2
12:40 44.6 °F 33.2 °F 30.07 in SSE 1.0 mph 9.0 mph 64% 0.00 in WeatherDisplay:10.37 W/m2
12:45 44.3 °F 33.3 °F 30.07 in ESE 2.0 mph 3.0 mph 65% 0.00 in WeatherDisplay:10.37 W/m2
12:50 44.5 °F 33.0 °F 30.07 in ESE 2.0 mph 5.0 mph 64% 0.00 in WeatherDisplay:10.37 W/m2
13:00 44.2 °F 33.6 °F 30.07 in Calm   5.0 mph 66% 0.00 in WeatherDisplay:10.37 W/m2
13:05 43.7 °F 34.2 °F 30.07 in East 1.0 mph 3.0 mph 69% 0.00 in WeatherDisplay:10.37 W/m2
13:15 43.7 °F 32.7 °F 30.08 in SE 2.0 mph 7.0 mph 65% 0.00 in WeatherDisplay:10.37 W/m2
13:20 44.0 °F 33.3 °F 30.08 in East 1.0 mph 6.0 mph 66% 0.00 in WeatherDisplay:10.37 W/m2
13:25 43.9 °F 33.7 °F 30.08 in ESE 2.0 mph 5.0 mph 67% 0.00 in WeatherDisplay:10.37 W/m2
13:30 43.7 °F 32.7 °F 30.08 in SSE 1.0 mph 3.0 mph 65% 0.00 in WeatherDisplay:10.37 W/m2
13:35 43.7 °F 33.1 °F 30.08 in SSE 1.0 mph 5.0 mph 66% 0.00 in WeatherDisplay:10.37 W/m2
13:40 43.6 °F 33.7 °F 30.09 in SE 1.0 mph 3.0 mph 68% 0.00 in WeatherDisplay:10.37 W/m2
13:45 43.7 °F 34.2 °F 30.09 in ESE 1.0 mph 3.0 mph 69% 0.00 in WeatherDisplay:10.37 W/m2
13:50 43.9 °F 34.0 °F 30.09 in South 5.0 mph 8.0 mph 68% 0.00 in WeatherDisplay:10.37 W/m2
13:55 43.8 °F 33.2 °F 30.09 in South 3.0 mph 7.0 mph 66% 0.00 in WeatherDisplay:10.37 W/m2
14:00 44.3 °F 33.7 °F 30.09 in SE 1.0 mph 6.0 mph 66% 0.00 in WeatherDisplay:10.37 W/m2
14:05 44.1 °F 33.5 °F 30.09 in ESE 2.0 mph 3.0 mph 66% 0.00 in WeatherDisplay:10.37 W/m2
14:10 43.7 °F 33.5 °F 30.09 in ESE 1.0 mph 2.0 mph 67% 0.00 in WeatherDisplay:10.37 W/m2
14:15 43.5 °F 34.0 °F 30.09 in ESE 2.0 mph 4.0 mph 69% 0.00 in WeatherDisplay:10.37 W/m2
14:20 43.5 °F 34.0 °F 30.09 in ESE 1.0 mph 3.0 mph 69% 0.00 in WeatherDisplay:10.37 W/m2
14:25 43.5 °F 34.3 °F 30.09 in SE 2.0 mph 5.0 mph 70% 0.00 in WeatherDisplay:10.37 W/m2
14:30 43.5 °F 34.7 °F 30.10 in SSE 1.0 mph 3.0 mph 71% 0.00 in WeatherDisplay:10.37 W/m2
14:35 43.3 °F 33.4 °F 30.10 in SSE 1.0 mph 6.0 mph 68% 0.00 in WeatherDisplay:10.37 W/m2
14:40 43.1 °F 33.6 °F 30.10 in SE 2.0 mph 6.0 mph 69% 0.00 in WeatherDisplay:10.37 W/m2
14:45 43.2 °F 33.4 °F 30.09 in SE 1.0 mph 6.0 mph 68% 0.00 in WeatherDisplay:10.37 W/m2
14:50 43.3 °F 34.5 °F 30.09 in SE 2.0 mph 2.0 mph 71% 0.00 in WeatherDisplay:10.37 W/m2
14:55 43.1 °F 34.4 °F 30.10 in SE 1.0 mph 4.0 mph 71% 0.00 in WeatherDisplay:10.37 W/m2
15:00 42.8 °F 34.0 °F 30.10 in SE 1.0 mph 3.0 mph 71% 0.00 in WeatherDisplay:10.37 W/m2
15:05 42.7 °F 34.6 °F 30.10 in SE 1.0 mph 2.0 mph 73% 0.00 in WeatherDisplay:10.37 W/m2
15:10 42.5 °F 34.5 °F 30.10 in ESE 1.0 mph 3.0 mph 73% 0.00 in WeatherDisplay:10.37 W/m2
15:15 42.5 °F 33.8 °F 30.11 in ESE 1.0 mph 7.0 mph 71% 0.00 in WeatherDisplay:10.37 W/m2
15:20 42.4 °F 34.3 °F 30.10 in NNE 2.0 mph 2.0 mph 73% 0.00 in WeatherDisplay:10.37 W/m2
15:25 42.4 °F 34.7 °F 30.11 in Calm   2.0 mph 74% 0.00 in WeatherDisplay:10.37 W/m2
15:40 41.5 °F 35.2 °F 30.12 in SSE 2.0 mph 7.0 mph 78% 0.00 in WeatherDisplay:10.37 W/m2
15:55 41.1 °F 34.8 °F 30.12 in NW 1.0 mph 3.0 mph 78% 0.00 in WeatherDisplay:10.37 W/m2
16:00 40.8 °F 34.8 °F 30.12 in WNW 1.0 mph 6.0 mph 79% 0.00 in WeatherDisplay:10.37 W/m2
16:05 40.3 °F 34.6 °F 30.13 in West 1.0 mph 4.0 mph 80% 0.00 in WeatherDisplay:10.37 W/m2
16:10 40.0 °F 34.6 °F 30.13 in Calm   4.0 mph 81% 0.00 in WeatherDisplay:10.37 W/m2
16:15 40.2 °F 34.2 °F 30.13 in Calm   2.0 mph 79% 0.00 in WeatherDisplay:10.37 W/m2
16:20 39.8 °F 34.5 °F 30.14 in East 2.0 mph 3.0 mph 81% 0.00 in WeatherDisplay:10.37 W/m2
16:25 39.7 °F 34.7 °F 30.14 in Calm   2.0 mph 82% 0.00 in WeatherDisplay:10.37 W/m2
16:30 39.5 °F 34.7 °F 30.14 in Calm     83% 0.00 in WeatherDisplay:10.37 W/m2
16:35 39.1 °F 34.4 °F 30.14 in Calm   5.0 mph 83% 0.00 in WeatherDisplay:10.37 W/m2
16:40 39.8 °F 34.8 °F 30.14 in NE 2.0 mph 5.0 mph 82% 0.00 in WeatherDisplay:10.37 W/m2
16:45 39.3 °F 34.6 °F 30.14 in Calm   2.0 mph 83% 0.00 in WeatherDisplay:10.37 W/m2
16:50 39.8 °F 34.8 °F 30.14 in Calm   5.0 mph 82% 0.00 in WeatherDisplay:10.37 W/m2
16:55 39.4 °F 34.7 °F 30.14 in Calm     83% 0.00 in WeatherDisplay:10.37 W/m2
17:00 39.0 °F 34.5 °F 30.14 in Calm     84% 0.00 in WeatherDisplay:10.37 W/m2
17:05 38.9 °F 34.8 °F 30.14 in Calm   6.0 mph 85% 0.00 in WeatherDisplay:10.37 W/m2
17:10 38.5 °F 34.4 °F 30.14 in NE 1.0 mph 2.0 mph 85% 0.00 in WeatherDisplay:10.37 W/m2
17:15 38.0 °F 34.2 °F 30.15 in Calm   2.0 mph 86% 0.00 in WeatherDisplay:10.37 W/m2
17:20 38.0 °F 34.5 °F 30.15 in Calm     87% 0.00 in WeatherDisplay:10.37 W/m2
17:25 38.0 °F 34.2 °F 30.15 in NE 1.0 mph 4.0 mph 86% 0.00 in WeatherDisplay:10.37 W/m2
17:30 37.8 °F 34.3 °F 30.15 in Calm   2.0 mph 87% 0.00 in WeatherDisplay:10.37 W/m2
17:35 37.6 °F 34.3 °F 30.15 in Calm   3.0 mph 88% 0.00 in WeatherDisplay:10.37 W/m2
17:40 37.6 °F 34.3 °F 30.16 in SSW 1.0 mph 3.0 mph 88% 0.00 in WeatherDisplay:10.37 W/m2
17:45 37.2 °F 34.2 °F 30.16 in Calm   3.0 mph 89% 0.00 in WeatherDisplay:10.37 W/m2
17:50 37.3 °F 34.3 °F 30.16 in Calm   2.0 mph 89% 0.00 in WeatherDisplay:10.37 W/m2
17:55 37.3 °F 34.3 °F 30.16 in Calm   1.0 mph 89% 0.00 in WeatherDisplay:10.37 W/m2
18:00 37.6 °F 34.1 °F 30.16 in Calm   6.0 mph 87% 0.00 in WeatherDisplay:10.37 W/m2
18:05 37.5 °F 34.3 °F 30.16 in ESE 2.0 mph 4.0 mph 88% 0.00 in WeatherDisplay:10.37 W/m2
18:10 37.5 °F 34.2 °F 30.16 in Calm   2.0 mph 88% 0.00 in WeatherDisplay:10.37 W/m2
18:15 37.3 °F 34.4 °F 30.16 in Calm     89% 0.00 in WeatherDisplay:10.37 W/m2
18:20 37.2 °F 34.0 °F 30.16 in Calm     88% 0.00 in WeatherDisplay:10.37 W/m2
18:25 37.1 °F 34.1 °F 30.16 in Calm     89% 0.00 in WeatherDisplay:10.37 W/m2
18:30 37.1 °F 34.2 °F 30.16 in Calm   2.0 mph 89% 0.00 in WeatherDisplay:10.37 W/m2
18:35 37.0 °F 34.1 °F 30.16 in SW 2.0 mph 2.0 mph 89% 0.00 in WeatherDisplay:10.37 W/m2
18:40 36.9 °F 34.0 °F 30.17 in South 1.0 mph 3.0 mph 89% 0.00 in WeatherDisplay:10.37 W/m2
18:45 37.1 °F 34.4 °F 30.17 in South 1.0 mph 2.0 mph 90% 0.00 in WeatherDisplay:10.37 W/m2
18:50 37.0 °F 34.3 °F 30.16 in Calm   2.0 mph 90% 0.00 in WeatherDisplay:10.37 W/m2
18:55 37.1 °F 34.1 °F 30.17 in Calm     89% 0.00 in WeatherDisplay:10.37 W/m2
19:00 37.0 °F 34.1 °F 30.17 in Calm     89% 0.00 in WeatherDisplay:10.37 W/m2
19:05 37.0 °F 34.4 °F 30.17 in Calm     90% 0.00 in WeatherDisplay:10.37 W/m2
19:10 37.0 °F 34.3 °F 30.16 in Calm     90% 0.00 in WeatherDisplay:10.37 W/m2
19:15 36.9 °F 34.0 °F 30.16 in Calm     89% 0.00 in WeatherDisplay:10.37 W/m2
19:20 36.9 °F 34.3 °F 30.16 in Calm     90% 0.00 in WeatherDisplay:10.37 W/m2
19:25 36.9 °F 34.2 °F 30.16 in Calm     90% 0.00 in WeatherDisplay:10.37 W/m2
19:30 36.9 °F 34.2 °F 30.16 in Calm     90% 0.00 in WeatherDisplay:10.37 W/m2
19:35 36.9 °F 34.2 °F 30.16 in Calm     90% 0.00 in WeatherDisplay:10.37 W/m2
19:40 36.9 °F 33.7 °F 30.16 in West 1.0 mph 3.0 mph 88% 0.00 in WeatherDisplay:10.37 W/m2
19:45 36.8 °F 33.9 °F 30.16 in Calm   2.0 mph 89% 0.00 in WeatherDisplay:10.37 W/m2
19:50 36.9 °F 34.3 °F 30.16 in Calm     90% 0.00 in WeatherDisplay:10.37 W/m2
19:55 36.9 °F 34.2 °F 30.16 in Calm     90% 0.00 in WeatherDisplay:10.37 W/m2
20:00 36.8 °F 34.1 °F 30.16 in Calm     90% 0.00 in WeatherDisplay:10.37 W/m2
20:05 36.8 °F 34.1 °F 30.16 in Calm     90% 0.00 in WeatherDisplay:10.37 W/m2
20:10 36.7 °F 34.1 °F 30.16 in Calm     90% 0.00 in WeatherDisplay:10.37 W/m2
20:15 36.7 °F 34.1 °F 30.16 in Calm     90% 0.00 in WeatherDisplay:10.37 W/m2
20:20 36.7 °F 34.1 °F 30.16 in Calm     90% 0.00 in WeatherDisplay:10.37 W/m2
20:25 36.7 °F 34.0 °F 30.16 in Calm     90% 0.00 in WeatherDisplay:10.37 W/m2
20:30 36.6 °F 34.0 °F 30.17 in Calm     90% 0.00 in WeatherDisplay:10.37 W/m2
20:35 36.6 °F 34.2 °F 30.17 in Calm     91% 0.00 in WeatherDisplay:10.37 W/m2
20:40 36.6 °F 34.2 °F 30.17 in Calm     91% 0.00 in WeatherDisplay:10.37 W/m2
20:45 36.6 °F 34.2 °F 30.17 in Calm     91% 0.00 in WeatherDisplay:10.37 W/m2
20:50 36.5 °F 34.1 °F 30.17 in Calm     91% 0.00 in WeatherDisplay:10.37 W/m2
20:55 36.5 °F 34.2 °F 30.17 in Calm     91% 0.00 in WeatherDisplay:10.37 W/m2
21:00 36.5 °F 34.1 °F 30.17 in Calm     91% 0.00 in WeatherDisplay:10.37 W/m2
21:05 36.4 °F 34.0 °F 30.18 in Calm     91% 0.00 in WeatherDisplay:10.37 W/m2
21:10 36.4 °F 34.1 °F 30.17 in Calm   2.0 mph 91% 0.00 in WeatherDisplay:10.37 W/m2
21:15 36.4 °F 34.3 °F 30.18 in Calm   2.0 mph 92% 0.00 in WeatherDisplay:10.37 W/m2
21:20 36.3 °F 34.2 °F 30.18 in Calm     92% 0.00 in WeatherDisplay:10.37 W/m2
21:25 36.4 °F 34.3 °F 30.18 in Calm     92% 0.00 in WeatherDisplay:10.37 W/m2
21:30 36.3 °F 34.2 °F 30.19 in Calm     92% 0.00 in WeatherDisplay:10.37 W/m2
Compliments of Weather Underground - 2.25 mb